sensor_id;sensor_type;location;lat;lon;timestamp;P1;durP1;ratioP1;P2;durP2;ratioP2
68097;SDS011;54886;47.036;15.466;2023-12-07T00:00:16;28.02;;;13.55;;
68097;SDS011;54886;47.036;15.466;2023-12-07T00:02:43;24.90;;;14.02;;
68097;SDS011;54886;47.036;15.466;2023-12-07T00:05:09;25.45;;;13.57;;
68097;SDS011;54886;47.036;15.466;2023-12-07T00:07:34;22.00;;;12.85;;
68097;SDS011;54886;47.036;15.466;2023-12-07T00:09:59;25.05;;;13.85;;
68097;SDS011;54886;47.036;15.466;2023-12-07T00:12:25;22.95;;;12.60;;
68097;SDS011;54886;47.036;15.466;2023-12-07T00:14:50;24.38;;;13.68;;
68097;SDS011;54886;47.036;15.466;2023-12-07T00:17:16;23.88;;;13.15;;
68097;SDS011;54886;47.036;15.466;2023-12-07T00:19:41;31.23;;;13.32;;
68097;SDS011;54886;47.036;15.466;2023-12-07T00:22:06;24.55;;;13.15;;
68097;SDS011;54886;47.036;15.466;2023-12-07T00:24:32;26.60;;;12.95;;
68097;SDS011;54886;47.036;15.466;2023-12-07T00:26:57;25.08;;;13.50;;
68097;SDS011;54886;47.036;15.466;2023-12-07T00:29:23;24.52;;;13.65;;
68097;SDS011;54886;47.036;15.466;2023-12-07T00:31:48;26.95;;;14.20;;
68097;SDS011;54886;47.036;15.466;2023-12-07T00:34:13;23.77;;;13.32;;
68097;SDS011;54886;47.036;15.466;2023-12-07T00:36:39;25.45;;;13.80;;
68097;SDS011;54886;47.036;15.466;2023-12-07T00:39:06;24.15;;;13.85;;
68097;SDS011;54886;47.036;15.466;2023-12-07T00:41:31;25.80;;;12.95;;
68097;SDS011;54886;47.036;15.466;2023-12-07T00:43:57;25.33;;;13.43;;
68097;SDS011;54886;47.036;15.466;2023-12-07T00:46:22;25.77;;;14.27;;
68097;SDS011;54886;47.036;15.466;2023-12-07T00:48:48;30.55;;;13.57;;
68097;SDS011;54886;47.036;15.466;2023-12-07T00:51:13;25.08;;;12.88;;
68097;SDS011;54886;47.036;15.466;2023-12-07T00:53:40;24.27;;;13.18;;
68097;SDS011;54886;47.036;15.466;2023-12-07T00:56:05;24.77;;;13.27;;
68097;SDS011;54886;47.036;15.466;2023-12-07T00:58:31;26.63;;;13.82;;
68097;SDS011;54886;47.036;15.466;2023-12-07T01:00:57;22.65;;;12.20;;
68097;SDS011;54886;47.036;15.466;2023-12-07T01:03:22;22.73;;;13.27;;
68097;SDS011;54886;47.036;15.466;2023-12-07T01:05:47;24.65;;;13.45;;
68097;SDS011;54886;47.036;15.466;2023-12-07T01:08:13;23.58;;;11.80;;
68097;SDS011;54886;47.036;15.466;2023-12-07T01:10:38;23.08;;;11.60;;
68097;SDS011;54886;47.036;15.466;2023-12-07T01:13:04;23.25;;;11.52;;
68097;SDS011;54886;47.036;15.466;2023-12-07T01:15:29;22.27;;;11.85;;
68097;SDS011;54886;47.036;15.466;2023-12-07T01:17:54;20.38;;;10.35;;
68097;SDS011;54886;47.036;15.466;2023-12-07T01:20:20;20.83;;;10.98;;
68097;SDS011;54886;47.036;15.466;2023-12-07T01:22:45;25.15;;;10.70;;
68097;SDS011;54886;47.036;15.466;2023-12-07T01:25:11;19.08;;;10.45;;
68097;SDS011;54886;47.036;15.466;2023-12-07T01:27:36;21.13;;;10.60;;
68097;SDS011;54886;47.036;15.466;2023-12-07T01:30:02;21.67;;;10.60;;
68097;SDS011;54886;47.036;15.466;2023-12-07T01:32:28;19.60;;;10.48;;
68097;SDS011;54886;47.036;15.466;2023-12-07T01:34:54;20.58;;;10.27;;
68097;SDS011;54886;47.036;15.466;2023-12-07T01:37:19;24.70;;;10.70;;
68097;SDS011;54886;47.036;15.466;2023-12-07T01:39:45;19.77;;;10.60;;
68097;SDS011;54886;47.036;15.466;2023-12-07T01:42:10;19.92;;;10.55;;
68097;SDS011;54886;47.036;15.466;2023-12-07T01:44:37;25.40;;;11.60;;
68097;SDS011;54886;47.036;15.466;2023-12-07T01:47:03;22.73;;;12.77;;
68097;SDS011;54886;47.036;15.466;2023-12-07T01:49:30;24.52;;;10.23;;
68097;SDS011;54886;47.036;15.466;2023-12-07T01:51:56;19.63;;;9.75;;
68097;SDS011;54886;47.036;15.466;2023-12-07T01:54:22;19.15;;;10.85;;
68097;SDS011;54886;47.036;15.466;2023-12-07T01:56:47;21.20;;;11.30;;
68097;SDS011;54886;47.036;15.466;2023-12-07T01:59:12;18.95;;;10.88;;
68097;SDS011;54886;47.036;15.466;2023-12-07T02:01:38;20.92;;;11.68;;
68097;SDS011;54886;47.036;15.466;2023-12-07T02:04:03;22.50;;;11.75;;
68097;SDS011;54886;47.036;15.466;2023-12-07T02:06:29;22.38;;;10.20;;
68097;SDS011;54886;47.036;15.466;2023-12-07T02:08:55;19.88;;;10.65;;
68097;SDS011;54886;47.036;15.466;2023-12-07T02:11:21;21.55;;;10.68;;
68097;SDS011;54886;47.036;15.466;2023-12-07T02:13:46;23.40;;;11.65;;
68097;SDS011;54886;47.036;15.466;2023-12-07T02:22:37;25.63;;;11.43;;
68097;SDS011;54886;47.036;15.466;2023-12-07T02:25:07;18.60;;;10.15;;
68097;SDS011;54886;47.036;15.466;2023-12-07T02:27:43;20.50;;;10.45;;
68097;SDS011;54886;47.036;15.466;2023-12-07T02:30:11;21.95;;;10.18;;
68097;SDS011;54886;47.036;15.466;2023-12-07T02:32:37;19.17;;;10.50;;
68097;SDS011;54886;47.036;15.466;2023-12-07T02:35:03;19.60;;;10.13;;
68097;SDS011;54886;47.036;15.466;2023-12-07T02:37:32;18.75;;;10.32;;
68097;SDS011;54886;47.036;15.466;2023-12-07T02:40:02;17.13;;;10.07;;
68097;SDS011;54886;47.036;15.466;2023-12-07T02:42:29;19.13;;;9.68;;
68097;SDS011;54886;47.036;15.466;2023-12-07T02:44:57;19.73;;;10.50;;
68097;SDS011;54886;47.036;15.466;2023-12-07T02:47:23;21.58;;;9.70;;
68097;SDS011;54886;47.036;15.466;2023-12-07T02:49:49;17.08;;;9.82;;
68097;SDS011;54886;47.036;15.466;2023-12-07T02:52:14;17.70;;;9.20;;
68097;SDS011;54886;47.036;15.466;2023-12-07T02:54:39;17.23;;;9.23;;
68097;SDS011;54886;47.036;15.466;2023-12-07T02:57:05;16.58;;;9.38;;
68097;SDS011;54886;47.036;15.466;2023-12-07T02:59:30;17.75;;;9.70;;
68097;SDS011;54886;47.036;15.466;2023-12-07T03:01:55;15.65;;;8.27;;
68097;SDS011;54886;47.036;15.466;2023-12-07T03:04:21;18.40;;;9.88;;
68097;SDS011;54886;47.036;15.466;2023-12-07T03:06:46;17.33;;;10.00;;
68097;SDS011;54886;47.036;15.466;2023-12-07T03:09:11;16.55;;;9.57;;
68097;SDS011;54886;47.036;15.466;2023-12-07T03:11:37;24.00;;;10.35;;
68097;SDS011;54886;47.036;15.466;2023-12-07T03:14:02;23.23;;;10.70;;
68097;SDS011;54886;47.036;15.466;2023-12-07T03:16:28;18.27;;;9.95;;
68097;SDS011;54886;47.036;15.466;2023-12-07T03:18:54;18.75;;;10.35;;
68097;SDS011;54886;47.036;15.466;2023-12-07T03:21:19;18.27;;;9.63;;
68097;SDS011;54886;47.036;15.466;2023-12-07T03:23:44;18.75;;;10.35;;
68097;SDS011;54886;47.036;15.466;2023-12-07T03:26:10;17.80;;;9.93;;
68097;SDS011;54886;47.036;15.466;2023-12-07T03:28:35;19.30;;;9.57;;
68097;SDS011;54886;47.036;15.466;2023-12-07T03:31:02;16.63;;;9.15;;
68097;SDS011;54886;47.036;15.466;2023-12-07T03:33:28;17.55;;;8.85;;
68097;SDS011;54886;47.036;15.466;2023-12-07T03:35:53;20.67;;;10.50;;
68097;SDS011;54886;47.036;15.466;2023-12-07T03:38:18;19.83;;;9.32;;
68097;SDS011;54886;47.036;15.466;2023-12-07T03:40:44;18.13;;;9.93;;
68097;SDS011;54886;47.036;15.466;2023-12-07T03:43:12;22.23;;;9.90;;
68097;SDS011;54886;47.036;15.466;2023-12-07T03:45:38;25.50;;;10.38;;
68097;SDS011;54886;47.036;15.466;2023-12-07T03:48:04;21.20;;;9.95;;
68097;SDS011;54886;47.036;15.466;2023-12-07T03:50:29;16.52;;;9.30;;
68097;SDS011;54886;47.036;15.466;2023-12-07T03:52:56;17.05;;;8.52;;
68097;SDS011;54886;47.036;15.466;2023-12-07T03:55:21;22.73;;;8.80;;
68097;SDS011;54886;47.036;15.466;2023-12-07T03:57:46;16.38;;;8.75;;
68097;SDS011;54886;47.036;15.466;2023-12-07T04:00:12;19.35;;;9.45;;
68097;SDS011;54886;47.036;15.466;2023-12-07T04:02:38;17.90;;;9.68;;
68097;SDS011;54886;47.036;15.466;2023-12-07T04:05:03;16.70;;;8.60;;
68097;SDS011;54886;47.036;15.466;2023-12-07T04:07:29;16.33;;;8.63;;
68097;SDS011;54886;47.036;15.466;2023-12-07T04:09:54;16.33;;;8.50;;
68097;SDS011;54886;47.036;15.466;2023-12-07T04:12:20;18.35;;;8.88;;
68097;SDS011;54886;47.036;15.466;2023-12-07T04:14:45;15.60;;;8.85;;
68097;SDS011;54886;47.036;15.466;2023-12-07T04:17:11;16.52;;;8.82;;
68097;SDS011;54886;47.036;15.466;2023-12-07T04:19:36;19.08;;;8.70;;
68097;SDS011;54886;47.036;15.466;2023-12-07T04:22:01;17.48;;;9.02;;
68097;SDS011;54886;47.036;15.466;2023-12-07T04:24:27;19.27;;;9.00;;
68097;SDS011;54886;47.036;15.466;2023-12-07T04:26:52;15.73;;;8.80;;
68097;SDS011;54886;47.036;15.466;2023-12-07T04:29:18;16.58;;;8.27;;
68097;SDS011;54886;47.036;15.466;2023-12-07T04:31:43;17.40;;;9.52;;
68097;SDS011;54886;47.036;15.466;2023-12-07T04:34:09;19.13;;;9.77;;
68097;SDS011;54886;47.036;15.466;2023-12-07T04:36:34;20.55;;;9.57;;
68097;SDS011;54886;47.036;15.466;2023-12-07T04:39:00;16.88;;;9.27;;
68097;SDS011;54886;47.036;15.466;2023-12-07T04:41:25;17.33;;;9.10;;
68097;SDS011;54886;47.036;15.466;2023-12-07T04:43:50;15.90;;;8.68;;
68097;SDS011;54886;47.036;15.466;2023-12-07T04:46:16;17.75;;;9.68;;
68097;SDS011;54886;47.036;15.466;2023-12-07T04:48:41;17.83;;;9.18;;
68097;SDS011;54886;47.036;15.466;2023-12-07T04:51:07;18.42;;;10.23;;
68097;SDS011;54886;47.036;15.466;2023-12-07T04:53:32;19.15;;;9.93;;
68097;SDS011;54886;47.036;15.466;2023-12-07T04:55:58;17.50;;;9.63;;
68097;SDS011;54886;47.036;15.466;2023-12-07T04:58:23;22.15;;;10.45;;
68097;SDS011;54886;47.036;15.466;2023-12-07T05:00:48;17.02;;;10.13;;
68097;SDS011;54886;47.036;15.466;2023-12-07T05:03:14;17.70;;;9.60;;
68097;SDS011;54886;47.036;15.466;2023-12-07T05:05:39;18.17;;;9.60;;
68097;SDS011;54886;47.036;15.466;2023-12-07T05:08:05;17.23;;;9.60;;
68097;SDS011;54886;47.036;15.466;2023-12-07T05:10:30;18.88;;;10.50;;
68097;SDS011;54886;47.036;15.466;2023-12-07T05:12:55;18.75;;;10.63;;
68097;SDS011;54886;47.036;15.466;2023-12-07T05:15:22;16.67;;;10.63;;
68097;SDS011;54886;47.036;15.466;2023-12-07T05:17:47;17.83;;;10.07;;
68097;SDS011;54886;47.036;15.466;2023-12-07T05:20:12;19.25;;;10.05;;
68097;SDS011;54886;47.036;15.466;2023-12-07T05:22:38;17.55;;;9.30;;
68097;SDS011;54886;47.036;15.466;2023-12-07T05:25:03;20.50;;;10.50;;
68097;SDS011;54886;47.036;15.466;2023-12-07T05:27:30;16.98;;;10.82;;
68097;SDS011;54886;47.036;15.466;2023-12-07T05:29:55;17.25;;;10.27;;
68097;SDS011;54886;47.036;15.466;2023-12-07T05:32:20;19.65;;;11.13;;
68097;SDS011;54886;47.036;15.466;2023-12-07T05:34:46;17.27;;;10.65;;
68097;SDS011;54886;47.036;15.466;2023-12-07T05:37:11;19.33;;;10.45;;
68097;SDS011;54886;47.036;15.466;2023-12-07T05:39:37;22.90;;;13.85;;
68097;SDS011;54886;47.036;15.466;2023-12-07T05:42:02;19.02;;;11.88;;
68097;SDS011;54886;47.036;15.466;2023-12-07T05:44:29;17.42;;;10.70;;
68097;SDS011;54886;47.036;15.466;2023-12-07T05:46:55;19.48;;;10.80;;
68097;SDS011;54886;47.036;15.466;2023-12-07T05:49:20;17.98;;;10.07;;
68097;SDS011;54886;47.036;15.466;2023-12-07T05:51:47;17.80;;;10.68;;
68097;SDS011;54886;47.036;15.466;2023-12-07T05:54:14;17.55;;;10.10;;
68097;SDS011;54886;47.036;15.466;2023-12-07T05:56:39;18.88;;;11.00;;
68097;SDS011;54886;47.036;15.466;2023-12-07T05:59:05;21.83;;;11.27;;
68097;SDS011;54886;47.036;15.466;2023-12-07T06:01:31;20.60;;;11.38;;
68097;SDS011;54886;47.036;15.466;2023-12-07T06:03:57;18.90;;;11.15;;
68097;SDS011;54886;47.036;15.466;2023-12-07T06:06:23;20.08;;;11.38;;
68097;SDS011;54886;47.036;15.466;2023-12-07T06:08:48;20.50;;;10.88;;
68097;SDS011;54886;47.036;15.466;2023-12-07T06:11:13;20.40;;;10.48;;
68097;SDS011;54886;47.036;15.466;2023-12-07T06:13:39;20.88;;;11.57;;
68097;SDS011;54886;47.036;15.466;2023-12-07T06:16:04;19.92;;;10.85;;
68097;SDS011;54886;47.036;15.466;2023-12-07T06:18:30;18.55;;;10.73;;
68097;SDS011;54886;47.036;15.466;2023-12-07T06:20:55;19.45;;;11.25;;
68097;SDS011;54886;47.036;15.466;2023-12-07T06:23:21;43.03;;;16.95;;
68097;SDS011;54886;47.036;15.466;2023-12-07T06:25:46;65.43;;;26.77;;
68097;SDS011;54886;47.036;15.466;2023-12-07T06:28:12;88.55;;;29.90;;
68097;SDS011;54886;47.036;15.466;2023-12-07T06:30:37;45.53;;;20.48;;
68097;SDS011;54886;47.036;15.466;2023-12-07T06:33:03;40.47;;;18.60;;
68097;SDS011;54886;47.036;15.466;2023-12-07T06:35:28;37.83;;;16.17;;
68097;SDS011;54886;47.036;15.466;2023-12-07T06:37:55;31.15;;;15.35;;
68097;SDS011;54886;47.036;15.466;2023-12-07T06:40:21;29.20;;;13.93;;
68097;SDS011;54886;47.036;15.466;2023-12-07T06:42:46;23.95;;;12.02;;
68097;SDS011;54886;47.036;15.466;2023-12-07T06:45:13;23.70;;;12.00;;
68097;SDS011;54886;47.036;15.466;2023-12-07T06:47:39;21.45;;;11.55;;
68097;SDS011;54886;47.036;15.466;2023-12-07T06:50:07;20.60;;;11.25;;
68097;SDS011;54886;47.036;15.466;2023-12-07T06:52:36;23.77;;;12.07;;
68097;SDS011;54886;47.036;15.466;2023-12-07T06:55:02;24.80;;;10.85;;
68097;SDS011;54886;47.036;15.466;2023-12-07T06:57:28;22.55;;;11.50;;
68097;SDS011;54886;47.036;15.466;2023-12-07T06:59:53;26.17;;;12.98;;
68097;SDS011;54886;47.036;15.466;2023-12-07T07:02:18;41.65;;;18.88;;
68097;SDS011;54886;47.036;15.466;2023-12-07T07:04:44;42.17;;;18.92;;
68097;SDS011;54886;47.036;15.466;2023-12-07T07:07:09;29.98;;;15.77;;
68097;SDS011;54886;47.036;15.466;2023-12-07T07:09:35;24.70;;;12.77;;
68097;SDS011;54886;47.036;15.466;2023-12-07T07:12:00;23.58;;;12.85;;
68097;SDS011;54886;47.036;15.466;2023-12-07T07:14:25;22.48;;;13.27;;
68097;SDS011;54886;47.036;15.466;2023-12-07T07:16:51;24.17;;;12.38;;
68097;SDS011;54886;47.036;15.466;2023-12-07T07:19:17;23.20;;;12.65;;
68097;SDS011;54886;47.036;15.466;2023-12-07T07:21:42;28.73;;;12.45;;
68097;SDS011;54886;47.036;15.466;2023-12-07T07:24:08;23.05;;;12.55;;
68097;SDS011;54886;47.036;15.466;2023-12-07T07:26:34;26.42;;;14.02;;
68097;SDS011;54886;47.036;15.466;2023-12-07T07:28:59;27.20;;;13.05;;
68097;SDS011;54886;47.036;15.466;2023-12-07T07:31:24;22.88;;;12.23;;
68097;SDS011;54886;47.036;15.466;2023-12-07T07:33:50;21.23;;;12.38;;
68097;SDS011;54886;47.036;15.466;2023-12-07T07:36:15;22.75;;;12.43;;
68097;SDS011;54886;47.036;15.466;2023-12-07T07:38:41;22.80;;;12.52;;
68097;SDS011;54886;47.036;15.466;2023-12-07T07:41:07;23.02;;;12.63;;
68097;SDS011;54886;47.036;15.466;2023-12-07T07:43:33;22.30;;;12.48;;
68097;SDS011;54886;47.036;15.466;2023-12-07T07:45:59;21.15;;;12.32;;
68097;SDS011;54886;47.036;15.466;2023-12-07T07:48:25;21.40;;;12.18;;
68097;SDS011;54886;47.036;15.466;2023-12-07T07:50:52;24.02;;;12.32;;
68097;SDS011;54886;47.036;15.466;2023-12-07T07:53:17;25.50;;;14.07;;
68097;SDS011;54886;47.036;15.466;2023-12-07T07:55:43;25.35;;;13.85;;
68097;SDS011;54886;47.036;15.466;2023-12-07T07:58:08;24.95;;;14.38;;
68097;SDS011;54886;47.036;15.466;2023-12-07T08:00:34;25.40;;;13.32;;
68097;SDS011;54886;47.036;15.466;2023-12-07T08:02:59;23.25;;;13.30;;
68097;SDS011;54886;47.036;15.466;2023-12-07T08:05:25;25.30;;;14.02;;
68097;SDS011;54886;47.036;15.466;2023-12-07T08:07:50;22.05;;;13.45;;
68097;SDS011;54886;47.036;15.466;2023-12-07T08:10:16;24.35;;;12.68;;
68097;SDS011;54886;47.036;15.466;2023-12-07T08:12:42;22.35;;;13.20;;
68097;SDS011;54886;47.036;15.466;2023-12-07T08:15:07;22.58;;;12.85;;
68097;SDS011;54886;47.036;15.466;2023-12-07T08:17:37;21.58;;;11.90;;
68097;SDS011;54886;47.036;15.466;2023-12-07T08:20:07;20.05;;;11.75;;
68097;SDS011;54886;47.036;15.466;2023-12-07T08:22:34;22.92;;;12.48;;
68097;SDS011;54886;47.036;15.466;2023-12-07T08:24:59;21.55;;;12.35;;
68097;SDS011;54886;47.036;15.466;2023-12-07T08:27:25;22.92;;;12.20;;
68097;SDS011;54886;47.036;15.466;2023-12-07T08:29:50;20.10;;;12.13;;
68097;SDS011;54886;47.036;15.466;2023-12-07T08:32:16;21.85;;;12.60;;
68097;SDS011;54886;47.036;15.466;2023-12-07T08:34:44;22.65;;;13.60;;
68097;SDS011;54886;47.036;15.466;2023-12-07T08:37:09;21.95;;;12.55;;
68097;SDS011;54886;47.036;15.466;2023-12-07T08:39:35;21.88;;;13.00;;
68097;SDS011;54886;47.036;15.466;2023-12-07T08:42:00;21.35;;;12.48;;
68097;SDS011;54886;47.036;15.466;2023-12-07T08:44:26;21.40;;;11.90;;
68097;SDS011;54886;47.036;15.466;2023-12-07T08:46:51;21.05;;;12.35;;
68097;SDS011;54886;47.036;15.466;2023-12-07T08:49:17;20.65;;;12.63;;
68097;SDS011;54886;47.036;15.466;2023-12-07T08:51:42;20.73;;;12.27;;
68097;SDS011;54886;47.036;15.466;2023-12-07T08:54:08;22.17;;;12.60;;
68097;SDS011;54886;47.036;15.466;2023-12-07T08:56:34;18.95;;;12.20;;
68097;SDS011;54886;47.036;15.466;2023-12-07T08:58:59;20.38;;;12.32;;
68097;SDS011;54886;47.036;15.466;2023-12-07T09:01:25;22.27;;;12.88;;
68097;SDS011;54886;47.036;15.466;2023-12-07T09:03:51;21.00;;;12.00;;
68097;SDS011;54886;47.036;15.466;2023-12-07T09:06:17;20.40;;;12.40;;
68097;SDS011;54886;47.036;15.466;2023-12-07T09:08:42;20.40;;;11.85;;
68097;SDS011;54886;47.036;15.466;2023-12-07T09:11:08;19.42;;;11.13;;
68097;SDS011;54886;47.036;15.466;2023-12-07T09:13:34;19.90;;;11.60;;
68097;SDS011;54886;47.036;15.466;2023-12-07T09:15:59;17.40;;;10.80;;
68097;SDS011;54886;47.036;15.466;2023-12-07T09:18:24;20.80;;;12.18;;
68097;SDS011;54886;47.036;15.466;2023-12-07T09:20:50;20.90;;;12.40;;
68097;SDS011;54886;47.036;15.466;2023-12-07T09:23:15;19.58;;;11.82;;
68097;SDS011;54886;47.036;15.466;2023-12-07T09:25:41;20.75;;;12.80;;
68097;SDS011;54886;47.036;15.466;2023-12-07T09:28:07;20.27;;;12.25;;
68097;SDS011;54886;47.036;15.466;2023-12-07T09:30:33;24.60;;;14.35;;
68097;SDS011;54886;47.036;15.466;2023-12-07T09:32:58;25.27;;;14.23;;
68097;SDS011;54886;47.036;15.466;2023-12-07T09:35:24;23.45;;;13.50;;
68097;SDS011;54886;47.036;15.466;2023-12-07T09:37:49;22.60;;;13.85;;
68097;SDS011;54886;47.036;15.466;2023-12-07T09:40:19;21.63;;;13.68;;
68097;SDS011;54886;47.036;15.466;2023-12-07T09:42:50;24.58;;;14.55;;
68097;SDS011;54886;47.036;15.466;2023-12-07T09:45:16;24.48;;;14.45;;
68097;SDS011;54886;47.036;15.466;2023-12-07T09:47:43;26.10;;;14.63;;
68097;SDS011;54886;47.036;15.466;2023-12-07T09:50:13;26.08;;;15.50;;
68097;SDS011;54886;47.036;15.466;2023-12-07T09:52:42;24.25;;;14.25;;
68097;SDS011;54886;47.036;15.466;2023-12-07T09:55:08;26.88;;;14.98;;
68097;SDS011;54886;47.036;15.466;2023-12-07T09:57:35;23.42;;;13.32;;
68097;SDS011;54886;47.036;15.466;2023-12-07T10:02:29;25.00;;;13.82;;
68097;SDS011;54886;47.036;15.466;2023-12-07T10:05:08;27.02;;;14.85;;
68097;SDS011;54886;47.036;15.466;2023-12-07T10:07:39;52.58;;;22.00;;
68097;SDS011;54886;47.036;15.466;2023-12-07T10:10:06;36.03;;;16.35;;
68097;SDS011;54886;47.036;15.466;2023-12-07T10:12:32;24.75;;;14.18;;
68097;SDS011;54886;47.036;15.466;2023-12-07T10:15:00;22.42;;;13.18;;
68097;SDS011;54886;47.036;15.466;2023-12-07T10:17:52;24.05;;;13.40;;
68097;SDS011;54886;47.036;15.466;2023-12-07T10:20:25;39.05;;;17.50;;
68097;SDS011;54886;47.036;15.466;2023-12-07T10:23:05;27.87;;;14.20;;
68097;SDS011;54886;47.036;15.466;2023-12-07T10:25:38;26.02;;;12.30;;
68097;SDS011;54886;47.036;15.466;2023-12-07T10:28:06;12.48;;;6.65;;
68097;SDS011;54886;47.036;15.466;2023-12-07T10:30:33;9.25;;;4.75;;
68097;SDS011;54886;47.036;15.466;2023-12-07T10:32:59;7.32;;;3.95;;
68097;SDS011;54886;47.036;15.466;2023-12-07T10:35:24;5.65;;;3.22;;
68097;SDS011;54886;47.036;15.466;2023-12-07T10:37:50;5.28;;;3.05;;
68097;SDS011;54886;47.036;15.466;2023-12-07T10:40:16;6.43;;;3.10;;
68097;SDS011;54886;47.036;15.466;2023-12-07T10:42:42;6.15;;;2.95;;
68097;SDS011;54886;47.036;15.466;2023-12-07T10:45:12;5.80;;;3.13;;
68097;SDS011;54886;47.036;15.466;2023-12-07T10:47:40;6.63;;;2.95;;
68097;SDS011;54886;47.036;15.466;2023-12-07T10:50:09;5.50;;;2.65;;
68097;SDS011;54886;47.036;15.466;2023-12-07T10:52:44;8.80;;;3.22;;
68097;SDS011;54886;47.036;15.466;2023-12-07T10:55:15;6.82;;;3.05;;
68097;SDS011;54886;47.036;15.466;2023-12-07T10:57:43;6.80;;;2.90;;
68097;SDS011;54886;47.036;15.466;2023-12-07T11:00:09;4.35;;;2.60;;
68097;SDS011;54886;47.036;15.466;2023-12-07T11:02:36;4.07;;;2.40;;
68097;SDS011;54886;47.036;15.466;2023-12-07T11:05:01;3.35;;;2.30;;
68097;SDS011;54886;47.036;15.466;2023-12-07T11:07:28;8.50;;;3.05;;
68097;SDS011;54886;47.036;15.466;2023-12-07T11:10:05;3.92;;;2.20;;
68097;SDS011;54886;47.036;15.466;2023-12-07T11:12:43;8.45;;;2.70;;
68097;SDS011;54886;47.036;15.466;2023-12-07T11:15:16;5.35;;;2.67;;
68097;SDS011;54886;47.036;15.466;2023-12-07T11:17:52;4.28;;;2.40;;
68097;SDS011;54886;47.036;15.466;2023-12-07T11:20:40;3.55;;;2.45;;
68097;SDS011;54886;47.036;15.466;2023-12-07T11:23:10;4.88;;;2.72;;
68097;SDS011;54886;47.036;15.466;2023-12-07T11:25:37;4.63;;;2.30;;
68097;SDS011;54886;47.036;15.466;2023-12-07T11:28:06;4.05;;;2.38;;
68097;SDS011;54886;47.036;15.466;2023-12-07T11:30:33;12.23;;;3.80;;
68097;SDS011;54886;47.036;15.466;2023-12-07T11:33:02;15.23;;;5.75;;
68097;SDS011;54886;47.036;15.466;2023-12-07T11:38:00;4.20;;;2.20;;
68097;SDS011;54886;47.036;15.466;2023-12-07T11:40:36;3.42;;;2.28;;
68097;SDS011;54886;47.036;15.466;2023-12-07T11:43:08;12.18;;;4.38;;
68097;SDS011;54886;47.036;15.466;2023-12-07T11:45:42;14.15;;;4.70;;
68097;SDS011;54886;47.036;15.466;2023-12-07T11:48:14;6.35;;;2.75;;
68097;SDS011;54886;47.036;15.466;2023-12-07T11:53:30;5.15;;;2.70;;
68097;SDS011;54886;47.036;15.466;2023-12-07T11:55:59;7.88;;;3.30;;
68097;SDS011;54886;47.036;15.466;2023-12-07T11:58:29;8.18;;;3.10;;
68097;SDS011;54886;47.036;15.466;2023-12-07T12:00:56;6.93;;;3.25;;
68097;SDS011;54886;47.036;15.466;2023-12-07T12:03:25;4.82;;;2.53;;
68097;SDS011;54886;47.036;15.466;2023-12-07T12:05:51;3.50;;;2.22;;
68097;SDS011;54886;47.036;15.466;2023-12-07T12:08:18;4.80;;;2.25;;
68097;SDS011;54886;47.036;15.466;2023-12-07T12:10:44;12.85;;;4.82;;
68097;SDS011;54886;47.036;15.466;2023-12-07T12:13:10;7.57;;;3.17;;
68097;SDS011;54886;47.036;15.466;2023-12-07T12:15:40;6.13;;;2.90;;
68097;SDS011;54886;47.036;15.466;2023-12-07T12:18:05;5.28;;;2.30;;
68097;SDS011;54886;47.036;15.466;2023-12-07T12:20:31;6.45;;;3.00;;
68097;SDS011;54886;47.036;15.466;2023-12-07T12:22:58;6.57;;;2.85;;
68097;SDS011;54886;47.036;15.466;2023-12-07T12:25:27;9.63;;;3.28;;
68097;SDS011;54886;47.036;15.466;2023-12-07T12:27:55;4.50;;;2.20;;
68097;SDS011;54886;47.036;15.466;2023-12-07T12:30:22;3.13;;;2.20;;
68097;SDS011;54886;47.036;15.466;2023-12-07T12:32:48;3.40;;;2.15;;
68097;SDS011;54886;47.036;15.466;2023-12-07T12:35:15;13.82;;;4.38;;
68097;SDS011;54886;47.036;15.466;2023-12-07T12:37:41;4.90;;;2.35;;
68097;SDS011;54886;47.036;15.466;2023-12-07T12:40:08;4.45;;;2.40;;
68097;SDS011;54886;47.036;15.466;2023-12-07T12:42:35;13.40;;;3.47;;
68097;SDS011;54886;47.036;15.466;2023-12-07T12:45:03;11.13;;;4.00;;
68097;SDS011;54886;47.036;15.466;2023-12-07T12:47:29;5.38;;;2.17;;
68097;SDS011;54886;47.036;15.466;2023-12-07T12:49:54;4.00;;;2.22;;
68097;SDS011;54886;47.036;15.466;2023-12-07T12:52:20;3.33;;;2.20;;
68097;SDS011;54886;47.036;15.466;2023-12-07T12:54:46;3.95;;;2.10;;
68097;SDS011;54886;47.036;15.466;2023-12-07T12:57:13;3.00;;;2.20;;
68097;SDS011;54886;47.036;15.466;2023-12-07T12:59:39;4.25;;;2.17;;
68097;SDS011;54886;47.036;15.466;2023-12-07T13:02:05;3.97;;;2.00;;
68097;SDS011;54886;47.036;15.466;2023-12-07T13:04:30;3.47;;;2.25;;
68097;SDS011;54886;47.036;15.466;2023-12-07T13:06:56;3.50;;;2.10;;
68097;SDS011;54886;47.036;15.466;2023-12-07T13:09:22;4.35;;;1.98;;
68097;SDS011;54886;47.036;15.466;2023-12-07T13:11:47;4.00;;;2.30;;
68097;SDS011;54886;47.036;15.466;2023-12-07T13:14:14;3.13;;;2.00;;
68097;SDS011;54886;47.036;15.466;2023-12-07T13:16:39;4.75;;;2.00;;
68097;SDS011;54886;47.036;15.466;2023-12-07T13:19:04;3.30;;;2.00;;
68097;SDS011;54886;47.036;15.466;2023-12-07T13:21:30;2.78;;;2.03;;
68097;SDS011;54886;47.036;15.466;2023-12-07T13:23:55;3.05;;;2.03;;
68097;SDS011;54886;47.036;15.466;2023-12-07T13:26:22;3.20;;;2.00;;
68097;SDS011;54886;47.036;15.466;2023-12-07T13:28:48;2.58;;;1.92;;
68097;SDS011;54886;47.036;15.466;2023-12-07T13:31:14;3.10;;;2.28;;
68097;SDS011;54886;47.036;15.466;2023-12-07T13:33:39;3.70;;;2.10;;
68097;SDS011;54886;47.036;15.466;2023-12-07T13:36:05;3.05;;;2.10;;
68097;SDS011;54886;47.036;15.466;2023-12-07T13:38:31;3.67;;;2.08;;
68097;SDS011;54886;47.036;15.466;2023-12-07T13:40:57;3.10;;;2.33;;
68097;SDS011;54886;47.036;15.466;2023-12-07T13:43:22;2.58;;;1.98;;
68097;SDS011;54886;47.036;15.466;2023-12-07T13:45:49;2.92;;;2.22;;
68097;SDS011;54886;47.036;15.466;2023-12-07T13:48:15;3.00;;;2.05;;
68097;SDS011;54886;47.036;15.466;2023-12-07T13:50:40;3.53;;;2.10;;
68097;SDS011;54886;47.036;15.466;2023-12-07T13:53:07;3.63;;;2.30;;
68097;SDS011;54886;47.036;15.466;2023-12-07T13:58:02;3.60;;;2.08;;
68097;SDS011;54886;47.036;15.466;2023-12-07T14:00:27;4.22;;;2.40;;
68097;SDS011;54886;47.036;15.466;2023-12-07T14:02:53;4.68;;;2.08;;
68097;SDS011;54886;47.036;15.466;2023-12-07T14:05:18;4.97;;;2.50;;
68097;SDS011;54886;47.036;15.466;2023-12-07T14:07:44;6.25;;;2.20;;
68097;SDS011;54886;47.036;15.466;2023-12-07T14:10:10;3.05;;;2.17;;
68097;SDS011;54886;47.036;15.466;2023-12-07T14:12:37;5.85;;;2.50;;
68097;SDS011;54886;47.036;15.466;2023-12-07T14:15:02;4.28;;;2.38;;
68097;SDS011;54886;47.036;15.466;2023-12-07T14:17:28;5.22;;;2.40;;
68097;SDS011;54886;47.036;15.466;2023-12-07T14:20:02;7.47;;;2.60;;
68097;SDS011;54886;47.036;15.466;2023-12-07T14:22:34;10.35;;;4.20;;
68097;SDS011;54886;47.036;15.466;2023-12-07T14:25:00;5.30;;;2.55;;
68097;SDS011;54886;47.036;15.466;2023-12-07T14:27:26;4.32;;;2.40;;
68097;SDS011;54886;47.036;15.466;2023-12-07T14:29:51;11.27;;;3.47;;